createdAt,value
2023-01-19T00:01:41.622Z,73.80
2023-01-19T00:04:09.241Z,73.90
2023-01-19T00:06:36.939Z,73.90
2023-01-19T00:09:04.301Z,74.00
2023-01-19T00:11:31.501Z,74.10
2023-01-19T00:13:58.968Z,74.10
2023-01-19T00:16:26.358Z,74.00
2023-01-19T00:18:54.046Z,73.80
2023-01-19T00:21:22.438Z,74.00
2023-01-19T00:23:51.345Z,74.00
2023-01-19T00:26:19.236Z,73.70
2023-01-19T00:28:46.829Z,73.60
2023-01-19T00:31:15.350Z,73.70
2023-01-19T00:33:42.591Z,73.30
2023-01-19T00:36:10.345Z,72.30
2023-01-19T00:38:39.118Z,71.10
2023-01-19T00:41:06.517Z,70.30
2023-01-19T00:43:33.744Z,70.30
2023-01-19T00:46:00.995Z,70.60
2023-01-19T00:48:28.186Z,70.90
2023-01-19T00:50:55.378Z,71.20
2023-01-19T00:53:22.719Z,71.00
2023-01-19T00:55:49.892Z,71.30
2023-01-19T00:58:17.211Z,71.40
2023-01-19T01:00:45.019Z,71.70
2023-01-19T01:03:12.335Z,71.80
2023-01-19T01:05:42.460Z,72.10
2023-01-19T01:08:09.627Z,72.20
2023-01-19T01:10:36.939Z,72.20
2023-01-19T01:13:19.961Z,72.30
2023-01-19T01:15:53.193Z,72.40
2023-01-19T01:18:21.253Z,72.20
2023-01-19T01:20:48.740Z,71.80
2023-01-19T01:23:16.030Z,71.40
2023-01-19T01:25:43.631Z,71.10
2023-01-19T01:28:10.778Z,71.30
2023-01-19T01:30:41.307Z,71.30
2023-01-19T01:33:08.872Z,71.70
2023-01-19T01:35:36.005Z,72.00
2023-01-19T01:38:03.990Z,72.30
2023-01-19T01:40:31.188Z,72.40
2023-01-19T01:42:58.742Z,72.30
2023-01-19T01:45:32.732Z,72.20
2023-01-19T01:48:17.647Z,72.10
2023-01-19T01:51:11.402Z,72.00
2023-01-19T01:53:40.137Z,72.00
2023-01-19T01:56:12.128Z,71.70
2023-01-19T01:58:39.957Z,71.70
2023-01-19T02:01:29.237Z,71.10
2023-01-19T02:03:58.631Z,70.50
2023-01-19T02:06:26.692Z,69.40
2023-01-19T02:09:20.686Z,68.30
2023-01-19T02:12:06.653Z,66.30
2023-01-19T02:14:39.152Z,65.50
2023-01-19T02:17:06.896Z,65.60
2023-01-19T02:19:42.395Z,66.00
2023-01-19T02:22:27.929Z,66.40
2023-01-19T02:24:55.614Z,66.70
2023-01-19T02:27:23.092Z,67.00
2023-01-19T02:29:50.285Z,67.20
2023-01-19T02:32:17.593Z,67.20
2023-01-19T02:34:44.859Z,67.70
2023-01-19T02:37:15.043Z,68.10
2023-01-19T02:39:50.969Z,68.50
2023-01-19T02:42:21.258Z,68.90
2023-01-19T02:44:50.589Z,69.20
2023-01-19T02:47:18.566Z,69.40
2023-01-19T02:49:54.169Z,69.40
2023-01-19T02:52:21.657Z,69.30
2023-01-19T02:54:54.729Z,69.00
2023-01-19T02:57:36.354Z,68.90
2023-01-19T03:00:32.818Z,68.90
2023-01-19T03:03:09.321Z,68.90
2023-01-19T03:05:58.390Z,69.00
2023-01-19T03:08:53.979Z,69.40
2023-01-19T03:11:24.163Z,69.70
2023-01-19T03:14:00.963Z,69.80
2023-01-19T03:16:50.234Z,70.00
2023-01-19T03:19:33.058Z,70.10
2023-01-19T03:22:13.528Z,70.30
2023-01-19T03:24:46.470Z,70.60
2023-01-19T03:27:20.086Z,71.00
2023-01-19T03:29:53.375Z,70.80
2023-01-19T03:32:29.780Z,71.00
2023-01-19T03:35:01.295Z,70.80
2023-01-19T03:37:32.341Z,70.40
2023-01-19T03:40:00.168Z,70.30
2023-01-19T03:42:28.878Z,70.20
2023-01-19T03:44:57.468Z,70.10
2023-01-19T03:47:25.676Z,70.30
2023-01-19T03:49:54.696Z,70.30
2023-01-19T03:52:30.104Z,70.40
2023-01-19T03:54:57.415Z,70.10
2023-01-19T03:57:24.756Z,70.10
2023-01-19T03:59:53.162Z,70.10
2023-01-19T04:02:20.375Z,70.20
2023-01-19T04:04:47.932Z,70.40
2023-01-19T04:07:15.257Z,70.40
2023-01-19T04:09:42.535Z,70.20
2023-01-19T04:12:09.814Z,70.40
2023-01-19T04:14:37.368Z,70.40
2023-01-19T04:17:04.587Z,72.20
2023-01-19T04:19:31.754Z,73.30
2023-01-19T04:21:59.087Z,75.20
2023-01-19T04:24:26.219Z,77.20
2023-01-19T04:26:53.820Z,78.80
2023-01-19T04:29:21.061Z,79.60
2023-01-19T04:31:48.334Z,80.10
2023-01-19T04:34:15.748Z,80.20
2023-01-19T04:36:43.092Z,80.40
2023-01-19T04:39:11.859Z,80.70
2023-01-19T04:41:39.135Z,80.80
2023-01-19T04:44:06.405Z,81.10
2023-01-19T04:46:33.684Z,81.10
2023-01-19T04:49:01.100Z,81.00
2023-01-19T04:51:29.009Z,80.80
2023-01-19T04:53:57.882Z,80.20
2023-01-19T04:56:25.242Z,79.90
2023-01-19T04:58:52.594Z,78.90
2023-01-19T05:01:19.982Z,78.10
2023-01-19T05:03:47.445Z,77.70
2023-01-19T05:06:14.866Z,77.30
2023-01-19T05:08:43.391Z,77.20
2023-01-19T05:11:11.973Z,76.90
2023-01-19T05:13:39.668Z,76.80
2023-01-19T05:16:07.563Z,77.00
2023-01-19T05:18:37.135Z,77.40
2023-01-19T05:21:05.098Z,77.60
2023-01-19T05:23:33.023Z,78.00
2023-01-19T05:26:02.149Z,78.30
2023-01-19T05:28:30.617Z,78.20
2023-01-19T05:30:58.258Z,78.10
2023-01-19T05:33:26.352Z,78.00
2023-01-19T05:35:54.435Z,77.80
2023-01-19T05:38:34.272Z,77.90
2023-01-19T05:41:02.954Z,78.10
2023-01-19T05:43:30.292Z,78.50
2023-01-19T05:45:58.192Z,79.10
2023-01-19T05:48:25.649Z,79.80
2023-01-19T05:50:58.337Z,79.90
2023-01-19T05:53:26.888Z,80.20
2023-01-19T05:55:59.441Z,80.50
2023-01-19T05:58:26.791Z,80.60
2023-01-19T06:00:54.015Z,80.60
2023-01-19T06:03:21.446Z,80.80
2023-01-19T06:05:51.290Z,80.90
2023-01-19T06:08:18.555Z,81.10
2023-01-19T06:10:45.766Z,81.30
2023-01-19T06:13:12.971Z,81.60
2023-01-19T06:15:40.467Z,81.40
2023-01-19T06:18:07.682Z,81.50
2023-01-19T06:20:35.711Z,81.50
2023-01-19T06:23:03.619Z,81.40
2023-01-19T06:25:31.064Z,81.50
2023-01-19T06:27:58.297Z,81.60
2023-01-19T06:30:25.515Z,81.60
2023-01-19T06:32:53.899Z,81.50
2023-01-19T06:35:21.137Z,81.50
2023-01-19T06:37:48.307Z,81.30
2023-01-19T06:40:15.691Z,81.00
2023-01-19T06:42:42.862Z,80.70
2023-01-19T06:45:11.749Z,80.80
2023-01-19T06:47:40.212Z,80.40
2023-01-19T06:50:07.753Z,80.00
2023-01-19T06:52:42.534Z,79.90
2023-01-19T06:55:11.637Z,79.80
2023-01-19T06:57:39.426Z,79.60
2023-01-19T07:00:09.166Z,79.40
2023-01-19T07:02:37.110Z,79.10
2023-01-19T07:05:06.921Z,78.90
2023-01-19T07:07:34.129Z,78.70
2023-01-19T07:10:01.377Z,78.50
2023-01-19T07:12:30.634Z,78.20
2023-01-19T07:14:57.872Z,77.90
2023-01-19T07:17:25.186Z,77.30
2023-01-19T07:19:52.372Z,76.30
2023-01-19T07:22:19.637Z,75.80
2023-01-19T07:24:46.840Z,75.10
2023-01-19T07:27:14.894Z,74.50
2023-01-19T07:29:42.505Z,73.60
2023-01-19T07:32:10.034Z,73.00
2023-01-19T07:34:37.303Z,72.30
2023-01-19T07:37:04.628Z,71.70
2023-01-19T07:39:32.237Z,71.50
2023-01-19T07:41:59.538Z,70.80
2023-01-19T07:44:27.389Z,70.30
2023-01-19T07:46:54.776Z,69.80
2023-01-19T07:49:22.069Z,69.40
2023-01-19T07:51:49.327Z,68.60
2023-01-19T07:54:17.663Z,68.10
2023-01-19T07:56:44.923Z,67.50
2023-01-19T07:59:12.266Z,67.40
2023-01-19T08:01:39.608Z,67.40
2023-01-19T08:04:06.971Z,66.90
2023-01-19T08:06:37.438Z,66.90
2023-01-19T08:09:07.441Z,66.40
2023-01-19T08:11:34.710Z,65.80
2023-01-19T08:14:02.662Z,66.40
2023-01-19T08:16:29.954Z,66.70
2023-01-19T08:18:57.317Z,65.70
2023-01-19T08:21:24.604Z,65.90
2023-01-19T08:23:56.294Z,66.30
2023-01-19T08:26:33.069Z,66.80
2023-01-19T08:29:06.446Z,67.00
2023-01-19T08:31:33.827Z,67.40
2023-01-19T08:34:01.258Z,67.30
2023-01-19T08:36:28.490Z,67.30
2023-01-19T08:38:55.722Z,66.70
2023-01-19T08:41:23.184Z,67.10
2023-01-19T08:43:50.623Z,66.90
2023-01-19T08:46:20.977Z,66.50
2023-01-19T08:48:48.917Z,65.50
2023-01-19T08:51:17.074Z,65.10
2023-01-19T08:53:44.563Z,65.10
2023-01-19T08:56:15.119Z,64.80
2023-01-19T08:58:44.165Z,65.00
2023-01-19T09:01:15.016Z,64.90
2023-01-19T09:03:42.937Z,64.60
2023-01-19T09:06:12.367Z,64.20
2023-01-19T09:08:39.543Z,64.40
2023-01-19T09:11:13.918Z,63.40
2023-01-19T09:13:42.484Z,62.80
2023-01-19T09:16:11.660Z,62.70
2023-01-19T09:18:39.904Z,63.10
2023-01-19T09:21:08.469Z,63.00
2023-01-19T09:23:38.097Z,62.80
2023-01-19T09:26:07.605Z,61.90
2023-01-19T09:28:35.921Z,62.10
2023-01-19T09:31:08.007Z,61.90
2023-01-19T09:33:35.953Z,61.20
2023-01-19T09:36:03.260Z,60.80
2023-01-19T09:38:33.320Z,60.40
2023-01-19T09:41:01.480Z,59.80
2023-01-19T09:43:48.940Z,59.90
2023-01-19T09:46:19.537Z,58.80
2023-01-19T09:49:05.098Z,58.60
2023-01-19T09:51:41.747Z,58.90
2023-01-19T09:54:17.630Z,58.90
2023-01-19T09:56:52.170Z,58.40
2023-01-19T09:59:26.658Z,57.90
2023-01-19T10:02:18.484Z,57.00
2023-01-19T10:04:59.971Z,57.50
2023-01-19T10:07:41.807Z,57.30
2023-01-19T10:10:20.761Z,57.20
2023-01-19T10:13:22.280Z,57.00
2023-01-19T10:16:10.193Z,56.70
2023-01-19T10:18:43.355Z,56.50
2023-01-19T10:21:35.510Z,57.10
2023-01-19T10:24:08.109Z,57.10
2023-01-19T10:26:47.676Z,57.50
2023-01-19T10:29:38.680Z,57.30
2023-01-19T10:32:17.609Z,57.50
2023-01-19T10:34:44.958Z,57.30
2023-01-19T10:37:34.303Z,57.40
2023-01-19T10:40:10.280Z,57.40
2023-01-19T10:42:40.272Z,57.20
2023-01-19T10:45:18.172Z,57.60
2023-01-19T10:47:48.177Z,57.40
2023-01-19T10:50:28.419Z,56.70
2023-01-19T10:53:02.205Z,57.00
2023-01-19T10:55:34.618Z,56.50
2023-01-19T10:58:02.711Z,56.00
2023-01-19T11:00:42.503Z,56.10
2023-01-19T11:03:30.921Z,55.50
2023-01-19T11:06:23.315Z,55.10
2023-01-19T11:08:52.974Z,54.60
2023-01-19T11:11:24.994Z,54.50
2023-01-19T11:14:12.120Z,54.40
2023-01-19T11:16:40.256Z,53.80
2023-01-19T11:19:29.247Z,52.60
2023-01-19T11:22:22.490Z,52.10
2023-01-19T11:24:50.907Z,50.90
2023-01-19T11:27:22.949Z,50.30
2023-01-19T11:30:13.311Z,50.90
2023-01-19T11:32:42.159Z,52.00
2023-01-19T11:35:46.588Z,52.90
2023-01-19T11:38:18.442Z,53.80
2023-01-19T11:40:53.087Z,53.50
2023-01-19T11:43:23.923Z,52.50
2023-01-19T11:45:51.973Z,51.40
2023-01-19T11:48:39.410Z,51.60
2023-01-19T11:51:14.238Z,51.20
2023-01-19T11:53:47.466Z,50.70
2023-01-19T11:56:16.081Z,50.70
2023-01-19T11:58:48.181Z,50.30
2023-01-19T12:01:25.058Z,49.50
2023-01-19T12:04:15.028Z,50.10
2023-01-19T12:06:47.931Z,50.20
2023-01-19T12:09:23.962Z,50.30
2023-01-19T12:12:08.412Z,50.00
2023-01-19T12:15:06.467Z,48.80
2023-01-19T12:17:49.544Z,49.90
2023-01-19T12:20:29.059Z,50.40
2023-01-19T12:23:11.773Z,51.20
2023-01-19T12:26:16.818Z,52.20
2023-01-19T12:28:47.830Z,52.30
2023-01-19T12:31:18.329Z,52.80
2023-01-19T12:33:46.504Z,53.60
2023-01-19T12:36:38.827Z,54.10
2023-01-19T12:39:07.263Z,54.50
2023-01-19T12:41:37.110Z,54.90
2023-01-19T12:44:14.240Z,55.40
2023-01-19T12:47:06.576Z,55.30
2023-01-19T12:49:47.258Z,54.80
2023-01-19T12:52:31.291Z,54.20
2023-01-19T12:55:03.958Z,53.30
2023-01-19T12:57:57.789Z,52.90
2023-01-19T13:00:25.909Z,53.10
2023-01-19T13:03:23.488Z,51.50
2023-01-19T13:05:53.971Z,51.70
2023-01-19T13:08:23.636Z,51.10
2023-01-19T13:11:02.996Z,50.80
2023-01-19T13:13:33.529Z,50.30
2023-01-19T13:16:30.154Z,50.00
2023-01-19T13:18:59.226Z,49.70
2023-01-19T13:21:30.208Z,50.10
2023-01-19T13:24:05.618Z,49.90
2023-01-19T13:26:35.449Z,49.40
2023-01-19T13:29:11.277Z,49.20
2023-01-19T13:31:41.640Z,48.80
2023-01-19T13:34:21.243Z,48.60
2023-01-19T13:36:54.128Z,48.90
2023-01-19T13:39:35.047Z,49.40
2023-01-19T13:42:05.987Z,50.30
2023-01-19T13:44:42.945Z,51.00
2023-01-19T13:47:19.478Z,51.90
2023-01-19T13:49:48.809Z,52.20
2023-01-19T13:52:25.018Z,52.20
2023-01-19T13:55:01.148Z,52.40
2023-01-19T13:57:49.779Z,52.70
2023-01-19T14:00:24.345Z,53.10
2023-01-19T14:02:59.613Z,53.10
2023-01-19T14:05:35.954Z,54.10
2023-01-19T14:08:08.677Z,54.10
2023-01-19T14:10:39.063Z,55.70
2023-01-19T14:13:25.428Z,54.50
2023-01-19T14:15:55.780Z,54.80
2023-01-19T14:18:23.749Z,54.80
2023-01-19T14:21:01.771Z,54.50
2023-01-19T14:23:48.891Z,54.10
2023-01-19T14:26:38.026Z,54.20
2023-01-19T14:29:33.122Z,54.70
2023-01-19T14:32:09.667Z,54.60
2023-01-19T14:34:50.482Z,54.60
2023-01-19T14:37:30.360Z,55.00
2023-01-19T14:40:13.166Z,55.00
2023-01-19T14:42:43.325Z,54.80
2023-01-19T14:45:20.725Z,54.60
2023-01-19T14:48:00.014Z,54.90
2023-01-19T14:50:37.920Z,54.70
2023-01-19T14:53:13.060Z,54.30
2023-01-19T14:55:54.808Z,53.80
2023-01-19T14:58:26.245Z,53.40
2023-01-19T15:00:56.881Z,53.10
2023-01-19T15:03:34.951Z,52.80
2023-01-19T15:06:23.372Z,52.80
2023-01-19T15:08:53.430Z,52.80
2023-01-19T15:11:32.293Z,52.80
2023-01-19T15:14:00.496Z,53.10
2023-01-19T15:16:30.249Z,53.70
2023-01-19T15:18:57.785Z,54.20
2023-01-19T15:21:26.959Z,54.40
2023-01-19T15:23:55.252Z,54.50
2023-01-19T15:26:25.541Z,54.80
2023-01-19T15:28:53.229Z,55.20
2023-01-19T15:31:23.456Z,55.70
2023-01-19T15:33:50.982Z,56.50
2023-01-19T15:36:20.623Z,57.10
2023-01-19T15:38:51.162Z,57.30
2023-01-19T15:41:30.162Z,56.90
2023-01-19T15:43:57.670Z,56.80
2023-01-19T15:46:26.799Z,56.20
2023-01-19T15:48:54.749Z,55.80
2023-01-19T15:51:25.661Z,55.40
2023-01-19T15:53:54.218Z,55.40
2023-01-19T15:56:27.554Z,55.50
2023-01-19T15:58:55.718Z,55.80
2023-01-19T16:01:31.548Z,56.30
2023-01-19T16:04:01.725Z,56.70
2023-01-19T16:06:30.267Z,56.80
2023-01-19T16:09:01.716Z,56.90
2023-01-19T16:11:34.028Z,57.10
2023-01-19T16:14:01.882Z,57.70
2023-01-19T16:16:29.297Z,58.20
2023-01-19T16:18:57.538Z,58.50
2023-01-19T16:21:25.332Z,58.70
2023-01-19T16:23:53.446Z,58.30
2023-01-19T16:26:34.558Z,58.40
2023-01-19T16:29:09.016Z,58.50
2023-01-19T16:31:43.320Z,58.40
2023-01-19T16:34:11.213Z,58.30
2023-01-19T16:36:41.001Z,58.30
2023-01-19T16:39:14.114Z,58.20
2023-01-19T16:41:42.575Z,58.40
2023-01-19T16:44:14.469Z,58.50
2023-01-19T16:46:44.823Z,58.60
2023-01-19T16:49:16.286Z,58.70
2023-01-19T16:51:43.860Z,58.70
2023-01-19T16:54:15.908Z,58.60
2023-01-19T16:56:43.348Z,58.70
2023-01-19T16:59:12.825Z,58.70
2023-01-19T17:01:40.860Z,58.70
2023-01-19T17:04:08.324Z,58.90
2023-01-19T17:06:35.674Z,59.00
2023-01-19T17:09:03.248Z,59.10
2023-01-19T17:11:32.069Z,59.20
2023-01-19T17:14:03.585Z,59.40
2023-01-19T17:16:33.241Z,59.70
2023-01-19T17:19:03.472Z,60.00
2023-01-19T17:21:30.843Z,60.20
2023-01-19T17:23:59.366Z,60.30
2023-01-19T17:26:34.058Z,60.50
2023-01-19T17:29:09.444Z,60.80
2023-01-19T17:31:37.539Z,60.80
2023-01-19T17:34:05.459Z,61.00
2023-01-19T17:36:34.147Z,61.20
2023-01-19T17:39:06.603Z,61.20
2023-01-19T17:41:35.806Z,61.40
2023-01-19T17:44:04.968Z,61.70
2023-01-19T17:46:35.750Z,62.30
2023-01-19T17:49:05.380Z,62.60
2023-01-19T17:51:33.211Z,62.90
2023-01-19T17:54:00.962Z,63.00
2023-01-19T17:56:30.451Z,63.30
2023-01-19T17:58:58.759Z,63.60
2023-01-19T18:01:31.512Z,64.20
2023-01-19T18:03:59.294Z,64.60
2023-01-19T18:06:26.628Z,64.70
2023-01-19T18:08:54.370Z,64.60
2023-01-19T18:11:22.406Z,64.40
2023-01-19T18:13:51.076Z,64.00
2023-01-19T18:16:27.066Z,63.60
2023-01-19T18:18:56.106Z,63.30
2023-01-19T18:21:24.637Z,62.80
2023-01-19T18:23:52.412Z,62.10
2023-01-19T18:26:21.946Z,61.80
2023-01-19T18:28:49.883Z,61.10
2023-01-19T18:31:19.225Z,60.10
2023-01-19T18:33:47.943Z,60.60
2023-01-19T18:36:16.511Z,61.70
2023-01-19T18:38:44.564Z,62.50
2023-01-19T18:41:14.904Z,63.10
2023-01-19T18:43:42.697Z,62.70
2023-01-19T18:46:10.481Z,62.60
2023-01-19T18:48:39.119Z,62.50
2023-01-19T18:51:08.446Z,62.70
2023-01-19T18:53:36.155Z,62.60
2023-01-19T18:56:04.384Z,62.80
2023-01-19T18:58:33.067Z,62.70
2023-01-19T19:01:01.474Z,62.50
2023-01-19T19:03:29.293Z,62.50
2023-01-19T19:05:57.100Z,62.40
2023-01-19T19:08:24.544Z,62.60
2023-01-19T19:10:51.914Z,62.50
2023-01-19T19:13:22.002Z,62.60
2023-01-19T19:15:49.491Z,62.90
2023-01-19T19:18:16.868Z,63.10
2023-01-19T19:20:44.322Z,63.40
2023-01-19T19:23:12.387Z,63.80
2023-01-19T19:25:39.706Z,64.20
2023-01-19T19:28:07.205Z,64.30
2023-01-19T19:30:37.962Z,64.40
2023-01-19T19:33:05.478Z,64.90
2023-01-19T19:35:32.707Z,65.20
2023-01-19T19:38:00.066Z,65.50
2023-01-19T19:40:28.543Z,65.90
2023-01-19T19:42:58.472Z,66.10
2023-01-19T19:45:26.369Z,66.10
2023-01-19T19:47:53.693Z,66.20
2023-01-19T19:50:21.044Z,66.30
2023-01-19T19:52:48.663Z,66.10
2023-01-19T19:55:16.222Z,65.90
2023-01-19T19:57:43.499Z,65.60
2023-01-19T20:00:11.584Z,65.40
2023-01-19T20:02:42.143Z,65.30
2023-01-19T20:05:09.703Z,65.10
2023-01-19T20:07:39.238Z,65.00
2023-01-19T20:10:06.883Z,65.00
2023-01-19T20:12:34.140Z,65.20
2023-01-19T20:15:04.927Z,65.30
2023-01-19T20:17:32.342Z,65.60
2023-01-19T20:19:59.684Z,65.80
2023-01-19T20:22:27.088Z,66.00
2023-01-19T20:24:54.483Z,66.20
2023-01-19T20:27:21.798Z,66.30
2023-01-19T20:29:58.597Z,66.40
2023-01-19T20:32:25.984Z,66.60
2023-01-19T20:34:53.434Z,66.80
2023-01-19T20:37:20.977Z,67.00
2023-01-19T20:39:50.908Z,67.00
2023-01-19T20:42:18.441Z,67.00
2023-01-19T20:44:45.724Z,67.00
2023-01-19T20:47:13.214Z,67.10
2023-01-19T20:49:40.484Z,67.30
2023-01-19T20:52:08.450Z,67.40
2023-01-19T20:54:36.196Z,67.60
2023-01-19T20:57:03.605Z,67.90
2023-01-19T20:59:30.991Z,67.90
2023-01-19T21:01:58.316Z,68.10
2023-01-19T21:04:26.316Z,68.30
2023-01-19T21:06:56.535Z,68.50
2023-01-19T21:09:24.289Z,68.60
2023-01-19T21:11:53.354Z,68.70
2023-01-19T21:14:20.823Z,69.00
2023-01-19T21:16:48.185Z,69.20
2023-01-19T21:19:15.597Z,69.50
2023-01-19T21:21:43.130Z,69.60
2023-01-19T21:24:11.271Z,69.50
2023-01-19T21:26:38.905Z,69.90
2023-01-19T21:29:06.277Z,70.20
2023-01-19T21:31:34.351Z,70.30
2023-01-19T21:34:01.717Z,70.60
2023-01-19T21:36:29.039Z,70.70
2023-01-19T21:39:00.860Z,70.80
2023-01-19T21:41:30.215Z,70.80
2023-01-19T21:43:58.726Z,70.90
2023-01-19T21:46:29.440Z,70.80
2023-01-19T21:49:01.499Z,70.70
2023-01-19T21:51:29.865Z,70.60
2023-01-19T21:53:59.714Z,70.40
2023-01-19T21:56:28.762Z,70.40
2023-01-19T21:58:56.978Z,70.30
2023-01-19T22:01:24.554Z,70.40
2023-01-19T22:03:56.867Z,70.70
2023-01-19T22:06:27.577Z,71.00
2023-01-19T22:08:55.596Z,71.30
2023-01-19T22:11:23.802Z,71.50
2023-01-19T22:13:51.759Z,71.80
2023-01-19T22:16:21.568Z,71.90
2023-01-19T22:18:59.676Z,72.00
2023-01-19T22:21:33.745Z,72.00
2023-01-19T22:24:03.033Z,72.00
2023-01-19T22:26:31.683Z,72.20
2023-01-19T22:29:01.309Z,72.30
2023-01-19T22:31:29.971Z,72.40
2023-01-19T22:33:58.276Z,72.60
2023-01-19T22:36:27.810Z,72.90
2023-01-19T22:38:56.257Z,73.30
2023-01-19T22:41:32.452Z,73.70
2023-01-19T22:44:03.064Z,73.90
2023-01-19T22:46:33.095Z,74.60
2023-01-19T22:49:00.617Z,74.80
2023-01-19T22:51:29.701Z,75.00
2023-01-19T22:53:57.018Z,75.60
2023-01-19T22:56:27.039Z,75.80
2023-01-19T22:58:55.146Z,76.40
2023-01-19T23:01:28.575Z,76.60
2023-01-19T23:03:56.337Z,76.60
2023-01-19T23:06:32.400Z,76.90
2023-01-19T23:09:02.263Z,76.60
2023-01-19T23:11:36.034Z,76.00
2023-01-19T23:14:05.201Z,75.90
2023-01-19T23:16:32.945Z,75.50
2023-01-19T23:19:00.280Z,75.40
2023-01-19T23:21:29.909Z,75.50
2023-01-19T23:24:01.419Z,75.30
2023-01-19T23:26:31.026Z,75.20
2023-01-19T23:29:00.870Z,74.80
2023-01-19T23:31:33.292Z,74.30
2023-01-19T23:34:01.675Z,73.80
2023-01-19T23:36:31.019Z,73.20
2023-01-19T23:39:02.268Z,72.80
2023-01-19T23:41:31.292Z,72.50
2023-01-19T23:43:58.750Z,72.20
2023-01-19T23:46:26.475Z,71.90
2023-01-19T23:48:54.163Z,71.50
2023-01-19T23:51:24.812Z,71.40
2023-01-19T23:53:56.440Z,71.60
2023-01-19T23:56:34.999Z,71.90
2023-01-19T23:59:05.727Z,71.80
